createdAt,value
2018-03-14T00:00:35.277Z,100970.98
2018-03-14T00:03:02.905Z,100971.27
2018-03-14T00:05:30.599Z,100979.05
2018-03-14T00:07:58.271Z,100970.02
2018-03-14T00:10:25.924Z,100974.61
2018-03-14T00:13:01.018Z,100980.64
2018-03-14T00:15:28.743Z,100977.30
2018-03-14T00:17:56.418Z,100982.40
2018-03-14T00:20:24.022Z,100989.80
2018-03-14T00:22:51.772Z,100984.70
2018-03-14T00:25:19.508Z,100990.59
2018-03-14T00:27:48.095Z,100987.63
2018-03-14T00:30:15.701Z,100993.28
2018-03-14T00:32:43.387Z,100997.86
2018-03-14T00:35:10.972Z,101006.06
2018-03-14T00:37:38.619Z,101004.30
2018-03-14T00:40:06.261Z,100998.65
2018-03-14T00:42:34.831Z,101003.50
2018-03-14T00:45:02.801Z,101004.43
2018-03-14T00:47:30.641Z,101007.80
2018-03-14T00:49:58.336Z,101012.22
2018-03-14T00:52:25.998Z,101013.28
2018-03-14T00:54:53.754Z,101014.62
2018-03-14T00:57:21.488Z,101017.33
2018-03-14T00:59:49.130Z,101018.12
2018-03-14T01:02:17.051Z,101020.02
2018-03-14T01:04:44.723Z,101016.51
2018-03-14T01:07:12.358Z,101024.30
2018-03-14T01:09:40.293Z,101032.63
2018-03-14T01:12:07.940Z,101026.19
2018-03-14T01:14:35.563Z,101030.22
2018-03-14T01:17:03.172Z,101030.49
2018-03-14T01:19:30.816Z,101026.05
2018-03-14T01:21:58.522Z,101025.92
2018-03-14T01:24:26.184Z,101025.27
2018-03-14T01:26:54.193Z,101028.34
2018-03-14T01:29:21.850Z,101023.09
2018-03-14T01:31:50.452Z,101029.81
2018-03-14T01:34:18.086Z,101023.37
2018-03-14T01:36:45.788Z,101025.26
2018-03-14T01:39:13.470Z,101031.16
2018-03-14T01:41:41.086Z,101031.30
2018-03-14T01:44:08.833Z,101024.56
2018-03-14T01:46:36.708Z,101034.38
2018-03-14T01:49:04.892Z,101028.72
2018-03-14T01:51:32.500Z,101034.36
2018-03-14T01:54:00.530Z,101035.16
2018-03-14T01:56:28.405Z,101041.77
2018-03-14T01:58:56.069Z,101044.05
2018-03-14T02:01:23.678Z,101042.84
2018-03-14T02:03:51.306Z,101048.20
2018-03-14T02:06:19.996Z,101048.20
2018-03-14T02:08:48.027Z,101051.27
2018-03-14T02:11:15.962Z,101044.16
2018-03-14T02:13:43.605Z,101049.92
2018-03-14T02:16:11.333Z,101058.40
2018-03-14T02:18:39.036Z,101048.60
2018-03-14T02:21:06.622Z,101051.54
2018-03-14T02:23:34.202Z,101049.67
2018-03-14T02:26:01.889Z,101051.13
2018-03-14T02:28:29.483Z,101051.92
2018-03-14T02:30:57.127Z,101052.48
2018-03-14T02:33:25.024Z,101053.26
2018-03-14T02:35:52.652Z,101051.41
2018-03-14T02:38:20.284Z,101050.44
2018-03-14T02:40:48.017Z,101058.91
2018-03-14T02:43:15.622Z,101059.73
2018-03-14T02:45:43.232Z,101058.25
2018-03-14T02:48:10.931Z,101054.61
2018-03-14T02:50:38.516Z,101058.78
2018-03-14T02:53:06.171Z,101064.42
2018-03-14T02:55:33.839Z,101057.70
2018-03-14T02:58:01.438Z,101055.43
2018-03-14T03:00:29.078Z,101052.34
2018-03-14T03:02:56.671Z,101061.73
2018-03-14T03:05:24.615Z,101069.95
2018-03-14T03:07:52.227Z,101067.64
2018-03-14T03:10:19.886Z,101069.80
2018-03-14T03:15:43.284Z,101069.92
2018-03-14T03:18:10.956Z,101074.37
2018-03-14T03:20:38.525Z,101077.04
2018-03-14T03:23:06.091Z,101078.52
2018-03-14T03:25:33.684Z,101074.20
2018-03-14T03:28:01.263Z,101072.47
2018-03-14T03:30:28.976Z,101069.91
2018-03-14T03:32:56.917Z,101068.98
2018-03-14T03:35:24.782Z,101078.25
2018-03-14T03:37:52.536Z,101083.22
2018-03-14T03:40:20.144Z,101078.11
2018-03-14T03:42:47.722Z,101083.90
2018-03-14T03:45:15.423Z,101091.40
2018-03-14T03:47:43.353Z,101091.27
2018-03-14T03:50:10.911Z,101088.05
2018-03-14T03:52:38.489Z,101090.84
2018-03-14T03:55:06.082Z,101087.36
2018-03-14T03:57:33.743Z,101091.11
2018-03-14T04:00:01.368Z,101090.31
2018-03-14T04:02:29.018Z,101084.39
2018-03-14T04:04:56.684Z,101088.57
2018-03-14T04:07:24.264Z,101085.48
2018-03-14T04:09:51.878Z,101081.73
2018-03-14T04:12:19.576Z,101086.03
2018-03-14T04:14:47.207Z,101087.66
2018-03-14T04:17:14.830Z,101089.25
2018-03-14T04:19:42.617Z,101087.81
2018-03-14T04:22:10.306Z,101089.95
2018-03-14T04:24:37.871Z,101093.84
2018-03-14T04:27:05.692Z,101091.56
2018-03-14T04:29:33.418Z,101097.19
2018-03-14T04:32:02.044Z,101098.94
2018-03-14T04:34:30.322Z,101105.14
2018-03-14T04:36:58.024Z,101107.70
2018-03-14T04:39:25.586Z,101115.34
2018-03-14T04:41:53.472Z,101112.64
2018-03-14T04:44:21.085Z,101115.18
2018-03-14T04:46:48.677Z,101109.15
2018-03-14T04:49:16.600Z,101107.66
2018-03-14T04:51:44.491Z,101108.59
2018-03-14T04:54:12.122Z,101105.63
2018-03-14T04:56:39.751Z,101106.46
2018-03-14T04:59:07.395Z,101107.80
2018-03-14T05:01:34.969Z,101106.84
2018-03-14T05:04:02.620Z,101105.39
2018-03-14T05:06:30.207Z,101102.42
2018-03-14T05:08:57.964Z,101106.45
2018-03-14T05:11:26.011Z,101106.83
2018-03-14T05:13:53.905Z,101110.48
2018-03-14T05:16:21.781Z,101110.86
2018-03-14T05:18:49.367Z,101117.33
2018-03-14T05:21:17.523Z,101127.66
2018-03-14T05:23:45.152Z,101116.62
2018-03-14T05:26:12.714Z,101121.61
2018-03-14T05:28:40.362Z,101123.75
2018-03-14T05:31:08.037Z,101127.78
2018-03-14T05:33:36.334Z,101120.00
2018-03-14T05:36:04.656Z,101122.41
2018-03-14T05:38:32.417Z,101123.47
2018-03-14T05:41:00.291Z,101124.94
2018-03-14T05:43:28.354Z,101121.97
2018-03-14T05:45:56.458Z,101120.23
2018-03-14T05:48:24.114Z,101119.56
2018-03-14T05:50:51.815Z,101118.22
2018-03-14T05:53:19.493Z,101127.75
2018-03-14T05:55:47.581Z,101122.64
2018-03-14T05:58:15.490Z,101127.22
2018-03-14T06:00:43.227Z,101133.11
2018-03-14T06:03:10.936Z,101132.31
2018-03-14T06:05:38.507Z,101130.14
2018-03-14T06:08:06.154Z,101139.41
2018-03-14T06:10:33.762Z,101137.83
2018-03-14T06:13:01.379Z,101140.38
2018-03-14T06:15:28.983Z,101141.18
2018-03-14T06:17:56.645Z,101144.28
2018-03-14T06:20:24.267Z,101154.06
2018-03-14T06:22:51.884Z,101154.19
2018-03-14T06:25:19.482Z,101157.69
2018-03-14T06:27:47.080Z,101155.28
2018-03-14T06:30:14.727Z,101157.30
2018-03-14T06:32:42.422Z,101154.63
2018-03-14T06:35:10.003Z,101165.52
2018-03-14T06:37:37.685Z,101162.69
2018-03-14T06:40:05.398Z,101160.44
2018-03-14T06:42:33.009Z,101160.17
2018-03-14T06:45:00.886Z,101163.23
2018-03-14T06:47:28.554Z,101165.14
2018-03-14T06:49:56.174Z,101161.67
2018-03-14T06:52:24.225Z,101166.23
2018-03-14T06:54:51.927Z,101169.06
2018-03-14T06:57:19.750Z,101172.28
2018-03-14T06:59:59.008Z,101179.69
2018-03-14T07:02:38.623Z,101172.98
2018-03-14T07:05:18.074Z,101184.55
2018-03-14T07:07:45.701Z,101185.11
2018-03-14T07:10:13.385Z,101181.60
2018-03-14T07:12:41.044Z,101188.33
2018-03-14T07:15:08.656Z,101194.28
2018-03-14T07:17:36.239Z,101189.30
2018-03-14T07:20:03.940Z,101188.66
2018-03-14T07:22:31.563Z,101181.27
2018-03-14T07:24:59.310Z,101194.87
2018-03-14T07:27:26.910Z,101188.30
2018-03-14T07:29:54.524Z,101201.36
2018-03-14T07:32:22.177Z,101196.27
2018-03-14T07:34:49.807Z,101198.83
2018-03-14T07:37:17.482Z,101199.37
2018-03-14T07:39:45.375Z,101208.84
2018-03-14T07:42:13.020Z,101208.58
2018-03-14T07:44:40.728Z,101212.63
2018-03-14T07:47:08.479Z,101219.37
2018-03-14T07:49:36.181Z,101222.17
2018-03-14T07:52:03.856Z,101218.30
2018-03-14T07:54:31.441Z,101211.58
2018-03-14T07:56:59.029Z,101211.06
2018-03-14T07:59:26.616Z,101213.08
2018-03-14T08:01:54.203Z,101215.50
2018-03-14T08:04:21.776Z,101215.38
2018-03-14T08:06:49.379Z,101218.73
2018-03-14T08:09:16.954Z,101227.36
2018-03-14T08:11:44.553Z,101226.81
2018-03-14T08:14:12.138Z,101225.48
2018-03-14T08:16:39.975Z,101226.80
2018-03-14T08:19:07.877Z,101229.11
2018-03-14T08:21:35.560Z,101234.50
2018-03-14T08:24:03.183Z,101233.82
2018-03-14T08:26:31.129Z,101232.07
2018-03-14T08:28:58.844Z,101229.94
2018-03-14T08:31:26.452Z,101234.64
2018-03-14T08:33:54.068Z,101227.64
2018-03-14T08:36:21.673Z,101231.55
2018-03-14T08:38:49.281Z,101230.89
2018-03-14T08:41:17.528Z,101225.38
2018-03-14T08:43:45.125Z,101227.11
2018-03-14T08:46:12.932Z,101230.48
2018-03-14T08:48:40.564Z,101225.34
2018-03-14T08:51:08.208Z,101229.00
2018-03-14T08:53:35.781Z,101239.09
2018-03-14T08:56:03.451Z,101233.16
2018-03-14T08:58:31.084Z,101244.48
2018-03-14T09:00:58.740Z,101242.85
2018-03-14T09:03:26.379Z,101244.58
2018-03-14T09:05:53.959Z,101238.92
2018-03-14T09:08:21.579Z,101240.40
2018-03-14T09:10:49.248Z,101235.00
2018-03-14T09:13:16.872Z,101235.00
2018-03-14T09:15:44.472Z,101238.90
2018-03-14T09:18:12.112Z,101234.72
2018-03-14T09:20:39.685Z,101230.11
2018-03-14T09:23:07.422Z,101235.62
2018-03-14T09:25:34.975Z,101227.95
2018-03-14T09:28:12.636Z,101236.13
2018-03-14T09:30:40.374Z,101239.20
2018-03-14T09:33:08.077Z,101237.31
2018-03-14T09:35:35.853Z,101240.70
2018-03-14T09:38:03.577Z,101237.85
2018-03-14T09:40:31.235Z,101239.84
2018-03-14T09:42:59.037Z,101241.44
2018-03-14T09:45:26.751Z,101238.83
2018-03-14T09:47:54.514Z,101229.39
2018-03-14T09:50:22.297Z,101229.38
2018-03-14T09:52:50.143Z,101240.16
2018-03-14T09:55:17.838Z,101232.46
2018-03-14T09:57:45.555Z,101233.80
2018-03-14T10:00:13.271Z,101237.56
2018-03-14T10:02:40.916Z,101240.52
2018-03-14T10:05:08.667Z,101237.67
2018-03-14T10:07:36.639Z,101241.55
2018-03-14T10:10:04.300Z,101243.42
2018-03-14T10:12:31.952Z,101246.00
2018-03-14T10:14:59.629Z,101248.25
2018-03-14T10:17:27.345Z,101246.06
2018-03-14T10:19:55.092Z,101243.77
2018-03-14T10:22:22.872Z,101250.89
2018-03-14T10:24:50.545Z,101245.49
2018-03-14T10:27:18.804Z,101244.66
2018-03-14T10:29:46.608Z,101250.04
2018-03-14T10:32:27.785Z,101249.07
2018-03-14T10:34:55.828Z,101255.67
2018-03-14T10:37:23.458Z,101251.89
2018-03-14T10:39:51.134Z,101245.36
2018-03-14T10:42:18.801Z,101252.20
2018-03-14T10:44:46.422Z,101253.09
2018-03-14T10:47:14.289Z,101257.28
2018-03-14T10:49:42.286Z,101251.73
2018-03-14T10:52:10.041Z,101253.05
2018-03-14T10:54:37.695Z,101256.20
2018-03-14T10:57:05.376Z,101248.13
2018-03-14T10:59:33.006Z,101253.36
2018-03-14T11:02:06.313Z,101255.58
2018-03-14T11:04:43.962Z,101243.09
2018-03-14T11:07:11.926Z,101242.05
2018-03-14T11:09:42.928Z,101245.36
2018-03-14T11:12:11.576Z,101246.83
2018-03-14T11:14:43.453Z,101243.67
2018-03-14T11:17:11.368Z,101242.28
2018-03-14T11:19:49.102Z,101244.01
2018-03-14T11:22:16.963Z,101248.83
2018-03-14T11:24:44.892Z,101249.38
2018-03-14T11:27:13.019Z,101248.81
2018-03-14T11:29:45.020Z,101253.11
2018-03-14T11:32:14.939Z,101253.55
2018-03-14T11:34:44.369Z,101244.31
2018-03-14T11:37:18.130Z,101233.30
2018-03-14T11:39:45.950Z,101231.97
2018-03-14T11:42:14.096Z,101230.78
2018-03-14T11:44:44.498Z,101236.37
2018-03-14T11:47:12.259Z,101231.00
2018-03-14T11:49:39.962Z,101226.20
2018-03-14T11:52:07.625Z,101224.14
2018-03-14T11:54:35.382Z,101226.79
2018-03-14T11:57:03.088Z,101222.08
2018-03-14T11:59:30.939Z,101215.57
2018-03-14T12:01:58.645Z,101222.51
2018-03-14T12:04:26.415Z,101222.26
2018-03-14T12:06:54.439Z,101227.39
2018-03-14T12:09:22.088Z,101214.69
2018-03-14T12:11:50.253Z,101207.81
2018-03-14T12:14:18.318Z,101206.83
2018-03-14T12:16:46.051Z,101200.61
2018-03-14T12:19:14.448Z,101201.92
2018-03-14T12:21:42.738Z,101192.75
2018-03-14T12:24:10.901Z,101192.09
2018-03-14T12:26:38.542Z,101178.59
2018-03-14T12:29:06.656Z,101177.99
2018-03-14T12:31:34.361Z,101170.91
2018-03-14T12:34:02.029Z,101164.41
2018-03-14T12:36:29.822Z,101157.45
2018-03-14T12:38:57.665Z,101158.27
2018-03-14T12:41:25.326Z,101155.55
2018-03-14T12:43:53.043Z,101141.68
2018-03-14T12:46:21.406Z,101140.16
2018-03-14T12:48:49.149Z,101132.66
2018-03-14T12:51:17.329Z,101127.40
2018-03-14T12:53:45.404Z,101130.98
2018-03-14T12:56:13.254Z,101118.00
2018-03-14T12:58:40.940Z,101117.32
2018-03-14T13:01:08.746Z,101124.16
2018-03-14T13:03:36.443Z,101112.38
2018-03-14T13:06:04.449Z,101112.13
2018-03-14T13:08:32.218Z,101108.08
2018-03-14T13:11:00.206Z,101100.31
2018-03-14T13:13:28.358Z,101091.04
2018-03-14T13:15:56.101Z,101097.66
2018-03-14T13:18:24.079Z,101097.34
2018-03-14T13:20:51.906Z,101088.42
2018-03-14T13:23:19.677Z,101082.54
2018-03-14T13:25:47.478Z,101085.78
2018-03-14T13:28:15.483Z,101083.33
2018-03-14T13:30:43.635Z,101078.88
2018-03-14T13:33:13.608Z,101068.36
2018-03-14T13:35:42.711Z,101063.69
2018-03-14T13:38:11.715Z,101055.44
2018-03-14T13:40:40.434Z,101048.35
2018-03-14T13:43:09.310Z,101049.17
2018-03-14T13:45:38.105Z,101047.69
2018-03-14T13:48:06.878Z,101036.89
2018-03-14T13:50:34.697Z,101042.37
2018-03-14T13:53:02.345Z,101041.27
2018-03-14T13:55:30.237Z,101032.06
2018-03-14T13:57:58.012Z,101032.59
2018-03-14T14:00:25.790Z,101024.88
2018-03-14T14:02:53.568Z,101029.26
2018-03-14T14:05:21.391Z,101012.42
2018-03-14T14:07:49.118Z,101010.55
2018-03-14T14:10:17.204Z,101007.13
2018-03-14T14:12:45.652Z,101003.30
2018-03-14T14:15:13.332Z,100999.84
2018-03-14T14:17:41.010Z,100989.77
2018-03-14T14:20:08.673Z,100993.39
2018-03-14T14:22:36.410Z,100985.90
2018-03-14T14:25:04.213Z,100980.80
2018-03-14T14:27:31.900Z,100970.09
2018-03-14T14:29:59.515Z,100970.77
2018-03-14T14:32:27.195Z,100969.37
2018-03-14T14:34:54.861Z,100960.05
2018-03-14T14:37:22.483Z,100963.69
2018-03-14T14:39:50.156Z,100962.63
2018-03-14T14:42:20.374Z,100960.05
2018-03-14T14:44:48.402Z,100959.67
2018-03-14T14:47:16.235Z,100953.25
2018-03-14T14:49:43.886Z,100944.48
2018-03-14T14:52:11.550Z,100943.08
2018-03-14T14:54:39.162Z,100932.84
2018-03-14T14:57:06.840Z,100930.85
2018-03-14T14:59:34.565Z,100924.33
2018-03-14T15:02:02.181Z,100925.64
2018-03-14T15:04:30.044Z,100908.69
2018-03-14T15:06:57.680Z,100906.91
2018-03-14T15:09:25.396Z,100906.88
2018-03-14T15:11:53.013Z,100908.31
2018-03-14T15:14:20.824Z,100905.35
2018-03-14T15:16:48.421Z,100904.11
2018-03-14T15:19:16.016Z,100901.68
2018-03-14T15:21:43.907Z,100900.27
2018-03-14T15:24:11.497Z,100901.73
2018-03-14T15:26:39.114Z,100902.54
2018-03-14T15:29:06.756Z,100897.48
2018-03-14T15:31:34.421Z,100894.27
2018-03-14T15:34:02.073Z,100892.16
2018-03-14T15:36:29.716Z,100883.78
2018-03-14T15:38:58.188Z,100887.55
2018-03-14T15:41:38.146Z,100886.88
2018-03-14T15:44:05.760Z,100888.14
2018-03-14T15:46:33.412Z,100887.96
2018-03-14T15:49:01.040Z,100888.41
2018-03-14T15:51:28.616Z,100884.81
2018-03-14T15:53:56.209Z,100879.48
2018-03-14T15:56:23.932Z,100884.65
2018-03-14T15:58:51.644Z,100883.67
2018-03-14T16:01:19.276Z,100882.00
2018-03-14T16:03:47.143Z,100881.08
2018-03-14T16:06:14.867Z,100890.19
2018-03-14T16:08:42.775Z,100894.92
2018-03-14T16:11:10.346Z,100896.58
2018-03-14T16:13:37.983Z,100898.65
2018-03-14T16:16:05.595Z,100898.75
2018-03-14T16:18:33.239Z,100893.88
2018-03-14T16:21:01.030Z,100895.14
2018-03-14T16:23:28.608Z,100902.00
2018-03-14T16:25:56.212Z,100902.30
2018-03-14T16:28:23.897Z,100900.00
2018-03-14T16:30:51.506Z,100903.72
2018-03-14T16:33:19.113Z,100904.81
2018-03-14T16:35:46.713Z,100908.80
2018-03-14T16:38:14.468Z,100912.03
2018-03-14T16:40:42.076Z,100914.36
2018-03-14T16:43:09.671Z,100916.34
2018-03-14T16:45:37.274Z,100924.87
2018-03-14T16:48:04.916Z,100926.55
2018-03-14T16:50:32.583Z,100927.05
2018-03-14T16:53:00.254Z,100930.56
2018-03-14T16:55:27.840Z,100928.20
2018-03-14T16:57:55.491Z,100928.45
2018-03-14T17:00:23.050Z,100925.28
2018-03-14T17:02:50.700Z,100928.83
2018-03-14T17:05:18.370Z,100935.61
2018-03-14T17:07:47.009Z,100932.09
2018-03-14T17:10:14.764Z,100931.36
2018-03-14T17:12:44.152Z,100938.55
2018-03-14T17:15:12.076Z,100944.66
2018-03-14T17:17:39.679Z,100944.16
2018-03-14T17:20:07.258Z,100938.61
2018-03-14T17:22:34.831Z,100942.04
2018-03-14T17:25:02.462Z,100942.33
2018-03-14T17:27:30.114Z,100942.24
2018-03-14T17:29:57.809Z,100940.27
2018-03-14T17:32:25.436Z,100940.56
2018-03-14T17:34:53.131Z,100946.59
2018-03-14T17:37:21.068Z,100943.09
2018-03-14T17:39:48.706Z,100944.23
2018-03-14T17:42:17.532Z,100945.22
2018-03-14T17:44:45.098Z,100945.87
2018-03-14T17:47:12.741Z,100946.53
2018-03-14T17:49:40.734Z,100946.35
2018-03-14T17:52:08.312Z,100946.42
2018-03-14T17:54:35.883Z,100944.02
2018-03-14T17:57:03.539Z,100935.72
2018-03-14T17:59:31.375Z,100932.00
2018-03-14T18:01:58.980Z,100929.75
2018-03-14T18:04:26.693Z,100931.67
2018-03-14T18:06:54.282Z,100926.64
2018-03-14T18:09:22.091Z,100926.59
2018-03-14T18:11:49.679Z,100925.74
2018-03-14T18:14:17.415Z,100928.44
2018-03-14T18:16:45.005Z,100924.73
2018-03-14T18:19:12.888Z,100922.64
2018-03-14T18:21:40.664Z,100914.33
2018-03-14T18:24:08.479Z,100913.88
2018-03-14T18:26:36.050Z,100913.00
2018-03-14T18:29:03.636Z,100912.48
2018-03-14T18:31:31.309Z,100908.75
2018-03-14T18:33:58.955Z,100910.63
2018-03-14T18:36:26.558Z,100908.23
2018-03-14T18:38:54.181Z,100905.55
2018-03-14T18:41:21.898Z,100903.70
2018-03-14T18:43:49.500Z,100898.48
2018-03-14T18:46:17.133Z,100903.85
2018-03-14T18:48:44.734Z,100900.77
2018-03-14T18:51:12.454Z,100899.84
2018-03-14T18:53:40.089Z,100900.26
2018-03-14T18:56:07.683Z,100891.64
2018-03-14T18:58:35.294Z,100893.96
2018-03-14T19:01:02.938Z,100892.34
2018-03-14T19:03:30.606Z,100892.88
2018-03-14T19:05:58.252Z,100889.67
2018-03-14T19:08:25.872Z,100881.33
2018-03-14T19:10:53.496Z,100889.81
2018-03-14T19:13:21.129Z,100879.34
2018-03-14T19:15:49.123Z,100885.52
2018-03-14T19:18:16.899Z,100884.03
2018-03-14T19:20:44.673Z,100877.73
2018-03-14T19:23:12.713Z,100877.87
2018-03-14T19:25:40.444Z,100867.53
2018-03-14T19:28:08.141Z,100856.23
2018-03-14T19:30:36.009Z,100859.75
2018-03-14T19:33:03.631Z,100850.48
2018-03-14T19:35:31.324Z,100845.11
2018-03-14T19:37:58.960Z,100837.70
2018-03-14T19:40:26.659Z,100844.18
2018-03-14T19:42:54.295Z,100850.07
2018-03-14T19:45:21.898Z,100842.56
2018-03-14T19:47:49.602Z,100841.08
2018-03-14T19:50:17.168Z,100841.08
2018-03-14T19:52:44.736Z,100836.53
2018-03-14T19:55:12.733Z,100824.58
2018-03-14T19:57:40.467Z,100821.20
2018-03-14T20:00:08.128Z,100818.41
2018-03-14T20:02:35.825Z,100825.26
2018-03-14T20:05:03.436Z,100814.89
2018-03-14T20:07:31.174Z,100816.37
2018-03-14T20:09:59.235Z,100812.75
2018-03-14T20:12:48.403Z,100803.77
2018-03-14T20:15:16.108Z,100816.27
2018-03-14T20:17:43.742Z,100814.23
2018-03-14T20:20:11.454Z,100798.12
2018-03-14T20:25:49.084Z,100796.11
2018-03-14T20:28:16.791Z,100795.59
2018-03-14T20:30:44.369Z,100799.99
2018-03-14T20:33:12.072Z,100794.62
2018-03-14T20:35:40.425Z,100793.55
2018-03-14T20:38:08.187Z,100788.17
2018-03-14T20:40:35.780Z,100789.38
2018-03-14T20:43:03.645Z,100786.31
2018-03-14T20:45:32.858Z,100780.40
2018-03-14T20:48:00.434Z,100778.64
2018-03-14T20:50:28.086Z,100772.34
2018-03-14T20:52:55.743Z,100769.14
2018-03-14T20:55:23.353Z,100765.11
2018-03-14T20:57:51.126Z,100755.58
2018-03-14T21:00:18.787Z,100752.09
2018-03-14T21:02:46.416Z,100754.09
2018-03-14T21:05:14.127Z,100751.81
2018-03-14T21:07:41.757Z,100745.76
2018-03-14T21:10:09.437Z,100741.77
2018-03-14T21:12:37.166Z,100746.84
2018-03-14T21:15:04.836Z,100748.04
2018-03-14T21:17:32.562Z,100743.09
2018-03-14T21:20:00.156Z,100743.23
2018-03-14T21:22:27.805Z,100747.24
2018-03-14T21:24:55.514Z,100744.56
2018-03-14T21:27:23.178Z,100742.80
2018-03-14T21:29:50.824Z,100744.92
2018-03-14T21:32:18.549Z,100744.01
2018-03-14T21:34:46.404Z,100737.14
2018-03-14T21:37:14.132Z,100735.70
2018-03-14T21:39:41.820Z,100743.73
2018-03-14T21:42:09.560Z,100730.56
2018-03-14T21:44:38.204Z,100726.15
2018-03-14T21:47:05.950Z,100725.73
2018-03-14T21:49:33.629Z,100728.03
2018-03-14T21:52:01.218Z,100716.20
2018-03-14T21:54:29.045Z,100717.95
2018-03-14T21:56:56.970Z,100718.08
2018-03-14T21:59:24.774Z,100707.20
2018-03-14T22:01:53.724Z,100701.73
2018-03-14T22:04:21.656Z,100693.41
2018-03-14T22:06:49.986Z,100691.37
2018-03-14T22:09:17.770Z,100684.02
2018-03-14T22:11:45.685Z,100676.63
2018-03-14T22:14:13.426Z,100679.05
2018-03-14T22:16:41.185Z,100676.23
2018-03-14T22:19:09.354Z,100665.65
2018-03-14T22:21:37.081Z,100659.47
2018-03-14T22:24:04.852Z,100649.16
2018-03-14T22:26:32.582Z,100645.67
2018-03-14T22:29:00.269Z,100636.81
2018-03-14T22:31:28.242Z,100634.67
2018-03-14T22:33:56.086Z,100631.70
2018-03-14T22:36:23.906Z,100627.95
2018-03-14T22:38:52.559Z,100634.27
2018-03-14T22:41:21.054Z,100627.31
2018-03-14T22:43:48.875Z,100633.72
2018-03-14T22:46:17.154Z,100633.86
2018-03-14T22:48:46.101Z,100637.07
2018-03-14T22:51:13.982Z,100641.61
2018-03-14T22:53:41.785Z,100646.19
2018-03-14T22:56:09.688Z,100653.27
2018-03-14T22:58:37.393Z,100643.91
2018-03-14T23:01:05.144Z,100647.64
2018-03-14T23:03:33.783Z,100646.81
2018-03-14T23:06:01.644Z,100648.03
2018-03-14T23:08:31.096Z,100642.55
2018-03-14T23:10:59.568Z,100639.74
2018-03-14T23:13:27.188Z,100635.03
2018-03-14T23:15:54.861Z,100636.48
2018-03-14T23:18:22.727Z,100635.28
2018-03-14T23:20:51.058Z,100629.53
2018-03-14T23:23:18.773Z,100625.64
2018-03-14T23:25:47.405Z,100615.61
2018-03-14T23:28:15.075Z,100610.52
2018-03-14T23:30:42.824Z,100608.77
2018-03-14T23:33:11.281Z,100598.87
2018-03-14T23:35:39.325Z,100590.69
2018-03-14T23:38:07.559Z,100587.60
2018-03-14T23:40:35.606Z,100585.83
2018-03-14T23:43:03.807Z,100571.93
2018-03-14T23:45:31.551Z,100566.28
2018-03-14T23:47:59.172Z,100562.27
2018-03-14T23:50:26.919Z,100556.38
2018-03-14T23:52:54.599Z,100555.56
2018-03-14T23:55:22.507Z,100549.56
2018-03-14T23:57:50.266Z,100541.39
